Time;durP1;ratioP1;P1;durP2;ratioP2;P2;SDS_P1;SDS_P2;PMS_P1;PMS_P2;Temp;Humidity;BMP_temperature;BMP_pressure;BME280_temperature;BME280_humidity;BME280_pressure;Samples;Min_cycle;Max_cycle;Signal;HPM_P1;HPM_P2
2024/01/23 00:01:27;;;;;;;23.90;7.43;;;;;;;;;;5092513;28;20282;-81
2024/01/23 00:03:56;;;;;;;12.77;3.83;;;;;;;;;;5091872;28;20337;-81
2024/01/23 00:06:24;;;;;;;23.03;8.10;;;;;;;;;;5091419;28;20224;-81
2024/01/23 00:08:53;;;;;;;12.83;4.03;;;;;;;;;;5090704;28;20289;-81
2024/01/23 00:11:21;;;;;;;9.17;3.50;;;;;;;;;;5092393;28;20217;-81
2024/01/23 00:13:51;;;;;;;13.83;4.00;;;;;;;;;;5090554;28;20202;-81
2024/01/23 00:16:20;;;;;;;15.97;4.77;;;;;;;;;;5091624;28;20198;-81
2024/01/23 00:18:48;;;;;;;18.63;6.40;;;;;;;;;;5090575;28;20198;-80
2024/01/23 00:21:17;;;;;;;21.70;7.27;;;;;;;;;;5091958;28;20222;-81
2024/01/23 00:23:45;;;;;;;12.77;4.07;;;;;;;;;;5090419;28;20190;-81
2024/01/23 00:26:19;;;;;;;17.80;6.57;;;;;;;;;;5090204;28;20214;-81
2024/01/23 00:28:48;;;;;;;10.73;4.40;;;;;;;;;;5091113;28;20198;-81
2024/01/23 00:31:18;;;;;;;13.70;4.37;;;;;;;;;;5090929;28;20205;-81
2024/01/23 00:33:46;;;;;;;19.57;7.47;;;;;;;;;;5090331;28;20233;-80
2024/01/23 00:36:15;;;;;;;12.50;5.43;;;;;;;;;;5090458;28;20198;-80
2024/01/23 00:38:43;;;;;;;14.80;4.07;;;;;;;;;;5091260;28;20215;-81
2024/01/23 00:41:12;;;;;;;15.07;4.47;;;;;;;;;;5091929;28;20206;-81
2024/01/23 00:43:40;;;;;;;14.10;4.50;;;;;;;;;;5090375;28;20207;-80
2024/01/23 00:46:09;;;;;;;12.20;4.57;;;;;;;;;;5090965;28;20241;-80
2024/01/23 00:48:38;;;;;;;17.77;4.67;;;;;;;;;;5090105;28;20224;-81
2024/01/23 00:51:07;;;;;;;24.13;9.43;;;;;;;;;;5091523;28;20251;-81
2024/01/23 00:53:36;;;;;;;15.80;5.10;;;;;;;;;;5091603;28;20193;-81
2024/01/23 00:56:05;;;;;;;15.60;4.87;;;;;;;;;;5090597;28;20186;-81
2024/01/23 00:58:34;;;;;;;21.43;5.23;;;;;;;;;;5089794;28;20197;-81
2024/01/23 01:01:02;;;;;;;13.47;5.20;;;;;;;;;;5090496;28;20345;-81
2024/01/23 01:03:33;;;;;;;11.23;4.13;;;;;;;;;;5090428;28;20273;-81
2024/01/23 01:06:04;;;;;;;8.20;3.50;;;;;;;;;;5090214;28;20197;-81
2024/01/23 01:08:33;;;;;;;14.87;5.17;;;;;;;;;;5090908;28;20201;-81
2024/01/23 01:11:01;;;;;;;21.43;8.80;;;;;;;;;;5090977;28;20212;-81
2024/01/23 01:13:30;;;;;;;11.90;4.27;;;;;;;;;;5091233;28;20197;-81
2024/01/23 01:15:58;;;;;;;14.03;5.47;;;;;;;;;;5090497;28;20202;-81
2024/01/23 01:18:26;;;;;;;14.13;4.07;;;;;;;;;;5089547;28;20198;-81
2024/01/23 01:20:56;;;;;;;9.80;3.53;;;;;;;;;;5089949;28;20217;-81
2024/01/23 01:23:25;;;;;;;16.60;5.20;;;;;;;;;;5090007;28;20197;-81
2024/01/23 01:25:54;;;;;;;10.47;2.90;;;;;;;;;;5090245;28;20202;-81
2024/01/23 01:28:23;;;;;;;14.40;4.13;;;;;;;;;;5091210;28;20300;-81
2024/01/23 01:30:51;;;;;;;18.60;7.27;;;;;;;;;;5090937;28;20223;-81
2024/01/23 01:33:21;;;;;;;15.27;6.53;;;;;;;;;;5090918;28;20273;-81
2024/01/23 01:35:51;;;;;;;19.50;7.07;;;;;;;;;;5091500;28;20238;-81
2024/01/23 01:38:19;;;;;;;29.37;10.07;;;;;;;;;;5089868;28;20261;-81
2024/01/23 01:40:49;;;;;;;10.83;3.50;;;;;;;;;;5090609;28;20206;-81
2024/01/23 01:43:25;;;;;;;22.50;6.73;;;;;;;;;;5089675;28;20192;-81
2024/01/23 01:46:00;;;;;;;14.90;4.77;;;;;;;;;;5091413;28;20193;-81
2024/01/23 01:48:28;;;;;;;17.73;5.67;;;;;;;;;;5091117;28;20225;-81
2024/01/23 01:50:57;;;;;;;17.20;7.07;;;;;;;;;;5090722;28;20198;-81
2024/01/23 01:53:25;;;;;;;9.30;3.83;;;;;;;;;;5089614;28;20265;-80
2024/01/23 01:55:55;;;;;;;17.30;5.13;;;;;;;;;;5089819;28;20356;-81
2024/01/23 01:58:24;;;;;;;6.40;3.50;;;;;;;;;;5093081;28;20194;-81
2024/01/23 02:00:53;;;;;;;19.73;6.53;;;;;;;;;;5093015;28;20193;-81
2024/01/23 02:03:22;;;;;;;20.93;7.30;;;;;;;;;;5093706;28;20288;-81
2024/01/23 02:05:51;;;;;;;22.40;5.97;;;;;;;;;;5094801;28;20194;-81
2024/01/23 02:08:20;;;;;;;14.47;7.77;;;;;;;;;;5093632;28;20212;-81
2024/01/23 02:10:48;;;;;;;20.63;6.70;;;;;;;;;;5092825;28;20202;-81
2024/01/23 02:13:18;;;;;;;22.67;8.50;;;;;;;;;;5093781;28;20197;-81
2024/01/23 02:15:47;;;;;;;10.43;4.07;;;;;;;;;;5094340;28;20201;-80
2024/01/23 02:18:18;;;;;;;14.63;4.80;;;;;;;;;;5094359;28;20276;-81
2024/01/23 02:20:48;;;;;;;16.83;3.97;;;;;;;;;;5092878;28;20205;-81
2024/01/23 02:23:17;;;;;;;14.23;3.43;;;;;;;;;;5093431;28;20226;-81
2024/01/23 02:25:47;;;;;;;13.63;4.00;;;;;;;;;;5093875;28;20198;-81
2024/01/23 02:28:16;;;;;;;10.47;4.17;;;;;;;;;;5094331;28;20215;-81
2024/01/23 02:30:44;;;;;;;17.33;3.97;;;;;;;;;;5093093;28;20208;-81
2024/01/23 02:33:13;;;;;;;18.60;7.97;;;;;;;;;;5093146;28;20244;-82
2024/01/23 02:35:42;;;;;;;10.27;4.40;;;;;;;;;;5092542;28;20187;-82
2024/01/23 02:38:10;;;;;;;15.80;5.57;;;;;;;;;;5093237;28;20434;-82
2024/01/23 02:40:39;;;;;;;14.77;4.87;;;;;;;;;;5092720;28;20212;-82
2024/01/23 02:43:09;;;;;;;20.93;6.00;;;;;;;;;;5093456;28;20199;-82
2024/01/23 02:45:37;;;;;;;7.00;3.63;;;;;;;;;;5092294;28;20197;-82
2024/01/23 02:48:06;;;;;;;12.47;5.93;;;;;;;;;;5094075;28;20256;-82
2024/01/23 02:50:35;;;;;;;16.13;5.80;;;;;;;;;;5093648;28;20274;-82
2024/01/23 02:53:03;;;;;;;19.43;5.00;;;;;;;;;;5093426;28;20246;-82
2024/01/23 02:55:32;;;;;;;26.07;9.60;;;;;;;;;;5093153;28;20197;-82
2024/01/23 02:58:00;;;;;;;19.60;6.13;;;;;;;;;;5093635;28;20324;-82
2024/01/23 03:00:30;;;;;;;14.63;4.27;;;;;;;;;;5094052;28;20195;-82
2024/01/23 03:02:59;;;;;;;10.33;3.17;;;;;;;;;;5093573;28;20226;-82
2024/01/23 03:05:27;;;;;;;11.13;3.93;;;;;;;;;;5092596;28;20285;-82
2024/01/23 03:07:56;;;;;;;19.80;5.20;;;;;;;;;;5092186;28;20216;-82
2024/01/23 03:10:24;;;;;;;24.37;6.30;;;;;;;;;;5092503;28;20203;-82
2024/01/23 03:12:53;;;;;;;22.37;6.67;;;;;;;;;;5092137;28;20225;-82
2024/01/23 03:15:21;;;;;;;43.80;4.63;;;;;;;;;;5091425;28;20198;-82
2024/01/23 03:17:54;;;;;;;8.17;3.23;;;;;;;;;;5091640;28;20242;-82
2024/01/23 03:20:28;;;;;;;16.93;5.70;;;;;;;;;;5093031;28;20287;-82
2024/01/23 03:22:56;;;;;;;20.80;7.20;;;;;;;;;;5093140;28;20193;-82
2024/01/23 03:25:25;;;;;;;15.57;4.73;;;;;;;;;;5092248;28;20204;-82
2024/01/23 03:27:53;;;;;;;14.30;4.20;;;;;;;;;;5092384;28;20210;-82
2024/01/23 03:30:28;;;;;;;18.60;8.33;;;;;;;;;;5092897;28;20210;-82
2024/01/23 03:32:59;;;;;;;19.90;5.53;;;;;;;;;;5091587;28;20245;-82
2024/01/23 03:35:27;;;;;;;19.70;6.23;;;;;;;;;;5091181;28;20234;-82
2024/01/23 03:37:56;;;;;;;25.53;5.53;;;;;;;;;;5090962;28;20197;-82
2024/01/23 03:40:24;;;;;;;18.63;8.00;;;;;;;;;;5092796;28;20213;-82
2024/01/23 03:42:53;;;;;;;16.90;6.03;;;;;;;;;;5093019;28;20251;-82
2024/01/23 03:45:21;;;;;;;11.63;3.83;;;;;;;;;;5090960;28;20198;-82
2024/01/23 03:47:50;;;;;;;13.70;4.83;;;;;;;;;;5091105;28;20339;-82
2024/01/23 03:50:20;;;;;;;19.47;5.53;;;;;;;;;;5092495;28;20271;-82
2024/01/23 03:52:48;;;;;;;13.10;4.07;;;;;;;;;;5091489;28;20202;-82
2024/01/23 03:55:17;;;;;;;15.83;4.70;;;;;;;;;;5092228;28;20199;-82
2024/01/23 03:57:45;;;;;;;24.03;9.07;;;;;;;;;;5091584;28;20200;-82
2024/01/23 04:00:15;;;;;;;19.93;6.47;;;;;;;;;;5092391;28;20193;-82
2024/01/23 04:02:43;;;;;;;9.97;4.07;;;;;;;;;;5091535;28;20196;-82
2024/01/23 04:05:12;;;;;;;17.37;6.37;;;;;;;;;;5092419;28;20197;-82
2024/01/23 04:07:42;;;;;;;18.53;7.40;;;;;;;;;;5091331;28;20194;-82
2024/01/23 04:10:11;;;;;;;25.30;7.80;;;;;;;;;;5091880;28;20207;-82
2024/01/23 04:12:40;;;;;;;22.27;4.90;;;;;;;;;;5092546;28;20223;-82
2024/01/23 04:15:08;;;;;;;21.90;5.50;;;;;;;;;;5090784;28;20209;-82
2024/01/23 04:17:41;;;;;;;16.10;5.27;;;;;;;;;;5091780;28;20214;-82
2024/01/23 04:20:10;;;;;;;6.97;3.47;;;;;;;;;;5090316;28;20194;-82
2024/01/23 04:22:39;;;;;;;29.03;9.00;;;;;;;;;;5091317;28;20243;-81
2024/01/23 04:25:12;;;;;;;18.47;5.57;;;;;;;;;;5090824;28;20205;-81
2024/01/23 04:27:40;;;;;;;30.40;6.60;;;;;;;;;;5091800;28;20193;-81
2024/01/23 04:30:09;;;;;;;13.10;4.37;;;;;;;;;;5091351;28;20201;-81
2024/01/23 04:32:38;;;;;;;12.23;3.70;;;;;;;;;;5090735;28;20197;-81
2024/01/23 04:35:06;;;;;;;27.23;9.23;;;;;;;;;;5090633;28;20244;-81
2024/01/23 04:37:35;;;;;;;14.13;5.90;;;;;;;;;;5090926;28;20199;-81
2024/01/23 04:40:07;;;;;;;18.63;6.07;;;;;;;;;;5091272;28;20208;-81
2024/01/23 04:42:37;;;;;;;18.83;6.03;;;;;;;;;;5091747;28;20198;-81
2024/01/23 04:45:08;;;;;;;12.63;4.37;;;;;;;;;;5091746;28;20312;-81
2024/01/23 04:47:36;;;;;;;22.77;6.53;;;;;;;;;;5090487;28;20198;-81
2024/01/23 04:50:05;;;;;;;24.53;6.27;;;;;;;;;;5091051;28;20218;-81
2024/01/23 04:52:34;;;;;;;15.37;5.87;;;;;;;;;;5091590;28;20232;-81
2024/01/23 04:55:02;;;;;;;23.43;7.67;;;;;;;;;;5091552;28;20199;-81
2024/01/23 04:57:32;;;;;;;26.30;8.63;;;;;;;;;;5090611;28;20193;-81
2024/01/23 05:00:04;;;;;;;23.97;4.47;;;;;;;;;;5090165;28;20205;-81
2024/01/23 05:02:33;;;;;;;22.93;6.20;;;;;;;;;;5090219;28;20197;-80
2024/01/23 05:05:01;;;;;;;13.00;3.47;;;;;;;;;;5090480;28;20201;-81
2024/01/23 05:07:30;;;;;;;21.37;6.80;;;;;;;;;;5090812;28;20236;-81
2024/01/23 05:09:58;;;;;;;17.40;6.07;;;;;;;;;;5091715;28;20224;-81
2024/01/23 05:12:27;;;;;;;22.60;6.17;;;;;;;;;;5091467;28;20204;-81
2024/01/23 05:14:55;;;;;;;20.60;7.20;;;;;;;;;;5091509;28;20224;-81
2024/01/23 05:17:25;;;;;;;27.50;7.47;;;;;;;;;;5091094;28;20198;-81
2024/01/23 05:19:54;;;;;;;23.63;6.90;;;;;;;;;;5091798;28;20198;-81
2024/01/23 05:22:22;;;;;;;23.87;5.10;;;;;;;;;;5090233;28;20194;-81
2024/01/23 05:24:51;;;;;;;20.47;5.30;;;;;;;;;;5091655;28;20197;-81
2024/01/23 05:27:19;;;;;;;23.37;6.37;;;;;;;;;;5091413;28;20205;-81
2024/01/23 05:29:48;;;;;;;28.77;9.03;;;;;;;;;;5091381;28;20220;-81
2024/01/23 05:32:17;;;;;;;19.13;5.73;;;;;;;;;;5091360;28;20287;-81
2024/01/23 05:34:46;;;;;;;8.17;3.07;;;;;;;;;;5093768;28;20247;-81
2024/01/23 05:37:15;;;;;;;20.77;5.60;;;;;;;;;;5095474;28;20275;-81
2024/01/23 05:39:43;;;;;;;12.10;4.40;;;;;;;;;;5094506;28;20219;-81
2024/01/23 05:42:12;;;;;;;22.73;7.93;;;;;;;;;;5095359;28;20250;-81
2024/01/23 05:44:40;;;;;;;18.00;3.43;;;;;;;;;;5094519;28;20204;-81
2024/01/23 05:47:12;;;;;;;16.17;5.13;;;;;;;;;;5093873;28;20229;-81
2024/01/23 05:49:41;;;;;;;19.33;5.93;;;;;;;;;;5095584;28;20227;-80
2024/01/23 05:52:10;;;;;;;11.27;5.60;;;;;;;;;;5094826;28;20298;-81
2024/01/23 05:54:41;;;;;;;18.67;5.13;;;;;;;;;;5094522;28;20224;-81
2024/01/23 05:57:10;;;;;;;13.90;4.43;;;;;;;;;;5095198;28;20208;-81
2024/01/23 05:59:38;;;;;;;20.93;8.43;;;;;;;;;;5095752;28;20186;-80
2024/01/23 06:02:07;;;;;;;17.23;4.07;;;;;;;;;;5093784;28;20442;-81
2024/01/23 06:04:35;;;;;;;26.17;8.20;;;;;;;;;;5092989;28;20194;-81
2024/01/23 06:07:06;;;;;;;15.70;4.00;;;;;;;;;;5093423;28;20196;-81
2024/01/23 06:09:36;;;;;;;16.00;5.27;;;;;;;;;;5093591;28;20274;-80
2024/01/23 06:12:05;;;;;;;8.23;3.30;;;;;;;;;;5093544;28;20205;-81
2024/01/23 06:14:34;;;;;;;12.07;5.40;;;;;;;;;;5092761;28;20335;-81
2024/01/23 06:17:03;;;;;;;15.90;3.77;;;;;;;;;;5093318;28;20201;-81
2024/01/23 06:19:31;;;;;;;25.43;8.33;;;;;;;;;;5094822;28;20197;-81
2024/01/23 06:22:00;;;;;;;14.47;5.87;;;;;;;;;;5093980;28;20210;-80
2024/01/23 06:24:28;;;;;;;22.00;5.43;;;;;;;;;;5094206;28;20201;-81
2024/01/23 06:26:58;;;;;;;9.57;3.93;;;;;;;;;;5093010;28;20265;-81
2024/01/23 06:29:26;;;;;;;14.60;4.47;;;;;;;;;;5094472;28;20212;-81
2024/01/23 06:31:55;;;;;;;7.73;3.80;;;;;;;;;;5094281;28;20189;-81
2024/01/23 06:34:24;;;;;;;8.00;2.90;;;;;;;;;;5093564;28;20322;-81
2024/01/23 06:36:53;;;;;;;26.47;6.80;;;;;;;;;;5094612;28;20232;-81
2024/01/23 06:39:22;;;;;;;23.07;7.10;;;;;;;;;;5092782;28;20215;-81
2024/01/23 06:41:50;;;;;;;35.93;9.93;;;;;;;;;;5093046;28;20296;-81
2024/01/23 06:44:20;;;;;;;14.93;3.87;;;;;;;;;;5092541;28;20201;-81
2024/01/23 06:46:50;;;;;;;20.97;5.87;;;;;;;;;;5093715;28;20197;-81
2024/01/23 06:49:23;;;;;;;20.40;6.53;;;;;;;;;;5094336;28;20426;-81
2024/01/23 06:51:52;;;;;;;12.97;4.33;;;;;;;;;;5093105;28;20205;-81
2024/01/23 06:54:21;;;;;;;27.83;6.43;;;;;;;;;;5094047;28;20201;-81
2024/01/23 06:56:49;;;;;;;17.37;4.40;;;;;;;;;;5093558;28;20292;-81
2024/01/23 06:59:18;;;;;;;7.63;3.27;;;;;;;;;;5093611;28;20202;-81
2024/01/23 07:01:48;;;;;;;21.87;6.80;;;;;;;;;;5092676;28;20194;-81
2024/01/23 07:04:17;;;;;;;12.63;5.57;;;;;;;;;;5092548;28;20224;-81
2024/01/23 07:06:46;;;;;;;18.03;5.43;;;;;;;;;;5091511;28;20293;-81
2024/01/23 07:09:14;;;;;;;14.53;4.87;;;;;;;;;;5093300;28;20200;-85
2024/01/23 07:11:43;;;;;;;20.23;7.03;;;;;;;;;;5092973;28;20381;-84
2024/01/23 07:14:12;;;;;;;23.97;5.33;;;;;;;;;;5094903;28;20209;-85
2024/01/23 07:16:40;;;;;;;22.10;5.37;;;;;;;;;;5093259;28;20205;-85
2024/01/23 07:19:10;;;;;;;17.43;4.13;;;;;;;;;;5092498;28;20196;-85
2024/01/23 07:21:40;;;;;;;15.20;4.33;;;;;;;;;;5094242;28;20291;-85
2024/01/23 07:24:09;;;;;;;21.50;6.50;;;;;;;;;;5093886;28;20220;-84
2024/01/23 07:26:38;;;;;;;17.17;3.77;;;;;;;;;;5092226;28;20191;-84
2024/01/23 07:29:06;;;;;;;18.17;6.10;;;;;;;;;;5093024;28;20205;-84
2024/01/23 07:31:35;;;;;;;16.67;5.70;;;;;;;;;;5092512;28;20219;-84
2024/01/23 07:34:03;;;;;;;9.80;3.47;;;;;;;;;;5092963;28;20231;-81
2024/01/23 07:36:35;;;;;;;16.23;5.90;;;;;;;;;;5093573;28;20216;-81
2024/01/23 07:39:05;;;;;;;20.00;6.93;;;;;;;;;;5092059;28;20198;-81
2024/01/23 07:41:34;;;;;;;16.30;5.40;;;;;;;;;;5092005;28;20296;-81
2024/01/23 07:44:03;;;;;;;22.37;6.73;;;;;;;;;;5091744;28;20208;-80
2024/01/23 07:46:34;;;;;;;23.77;8.00;;;;;;;;;;5093141;28;20250;-81
2024/01/23 07:49:03;;;;;;;18.70;3.73;;;;;;;;;;5092729;28;20234;-81
2024/01/23 07:51:46;;;;;;;23.43;5.40;;;;;;;;;;5091443;28;20225;-81
2024/01/23 07:54:15;;;;;;;8.10;3.37;;;;;;;;;;5091939;28;20288;-81
2024/01/23 07:56:43;;;;;;;25.53;7.47;;;;;;;;;;5092639;28;20261;-82
2024/01/23 07:59:12;;;;;;;8.10;3.27;;;;;;;;;;5091475;28;20213;-81
2024/01/23 08:01:40;;;;;;;19.17;4.33;;;;;;;;;;5091043;28;20193;-81
2024/01/23 08:04:10;;;;;;;21.03;5.97;;;;;;;;;;5092678;28;20197;-81
2024/01/23 08:06:39;;;;;;;19.27;5.77;;;;;;;;;;5092573;28;20199;-81
2024/01/23 08:09:09;;;;;;;15.20;3.80;;;;;;;;;;5091850;28;20203;-81
2024/01/23 08:11:40;;;;;;;21.17;5.63;;;;;;;;;;5091891;28;20255;-81
2024/01/23 08:14:09;;;;;;;7.33;2.53;;;;;;;;;;5092398;28;20189;-81
2024/01/23 08:16:40;;;;;;;22.20;7.03;;;;;;;;;;5092665;28;20399;-81
2024/01/23 08:19:11;;;;;;;4.17;2.20;;;;;;;;;;5087080;28;20194;-81
2024/01/23 08:21:40;;;;;;;8.50;3.43;;;;;;;;;;5089849;28;20202;-81
2024/01/23 08:24:13;;;;;;;16.70;5.73;;;;;;;;;;5091624;28;20205;-81
2024/01/23 08:26:41;;;;;;;11.10;4.07;;;;;;;;;;5086055;28;20316;-81
2024/01/23 08:29:10;;;;;;;22.10;5.07;;;;;;;;;;5088689;28;20200;-81
2024/01/23 08:31:39;;;;;;;14.47;5.50;;;;;;;;;;5083331;28;20212;-81
2024/01/23 08:34:07;;;;;;;9.83;2.60;;;;;;;;;;5102351;28;20738;-82
2024/01/23 08:36:36;;;;;;;10.30;5.57;;;;;;;;;;5106611;28;20211;-81
2024/01/23 08:39:05;;;;;;;19.00;4.20;;;;;;;;;;5091181;28;20198;-81
2024/01/23 08:41:35;;;;;;;14.13;3.80;;;;;;;;;;5089930;28;20201;-82
2024/01/23 08:44:04;;;;;;;24.13;7.43;;;;;;;;;;5087699;28;20221;-82
2024/01/23 08:46:32;;;;;;;20.63;7.17;;;;;;;;;;5090081;28;20206;-82
2024/01/23 08:49:01;;;;;;;15.93;4.83;;;;;;;;;;5089289;28;20222;-81
2024/01/23 08:51:32;;;;;;;25.53;5.83;;;;;;;;;;5087384;28;20202;-82
2024/01/23 08:54:01;;;;;;;16.37;5.83;;;;;;;;;;5088053;28;20215;-81
2024/01/23 08:56:31;;;;;;;11.00;3.77;;;;;;;;;;5090326;28;20204;-82
2024/01/23 08:59:03;;;;;;;28.07;6.77;;;;;;;;;;5090321;28;20244;-82
2024/01/23 09:01:34;;;;;;;17.10;5.00;;;;;;;;;;5090157;28;20217;-82
2024/01/23 09:04:02;;;;;;;11.13;4.27;;;;;;;;;;5089193;28;20292;-82
2024/01/23 09:06:31;;;;;;;6.93;3.53;;;;;;;;;;5091073;28;20284;-82
2024/01/23 09:09:00;;;;;;;11.27;2.10;;;;;;;;;;5093682;28;20202;-81
2024/01/23 09:11:28;;;;;;;8.13;2.90;;;;;;;;;;5094019;28;20219;-82
2024/01/23 09:14:14;;;;;;;10.53;3.50;;;;;;;;;;5094749;28;20198;-81
2024/01/23 09:16:43;;;;;;;18.77;4.13;;;;;;;;;;5095633;28;20210;-81
2024/01/23 09:19:11;;;;;;;21.67;3.77;;;;;;;;;;5095140;28;20194;-81
2024/01/23 09:21:40;;;;;;;19.13;3.47;;;;;;;;;;5095413;28;20194;-81
2024/01/23 09:24:11;;;;;;;18.17;4.40;;;;;;;;;;5093392;28;20202;-82
2024/01/23 09:26:40;;;;;;;5.47;2.53;;;;;;;;;;5095367;28;20198;-81
2024/01/23 09:29:09;;;;;;;8.13;4.37;;;;;;;;;;5093048;28;20261;-82
2024/01/23 09:31:45;;;;;;;11.13;4.30;;;;;;;;;;5094152;28;20211;-82
2024/01/23 09:34:18;;;;;;;11.13;3.03;;;;;;;;;;5091569;28;20237;-82
2024/01/23 09:36:51;;;;;;;13.80;5.53;;;;;;;;;;5094979;28;20273;-81
2024/01/23 09:39:19;;;;;;;7.00;2.73;;;;;;;;;;5092991;28;20205;-85
2024/01/23 09:42:02;;;;;;;9.03;3.53;;;;;;;;;;5089881;28;20220;-86
2024/01/23 09:44:58;;;;;;;5.93;1.93;;;;;;;;;;5072914;28;20207;-87
2024/01/23 09:47:28;;;;;;;31.63;4.30;;;;;;;;;;5091584;28;20211;-85
2024/01/23 09:49:57;;;;;;;6.53;2.57;;;;;;;;;;5088279;28;20248;-83
2024/01/23 09:52:29;;;;;;;7.53;3.33;;;;;;;;;;5089532;28;20224;-87
2024/01/23 09:54:57;;;;;;;4.43;2.70;;;;;;;;;;5083932;28;20198;-87
2024/01/23 09:57:30;;;;;;;10.27;3.37;;;;;;;;;;5087806;28;20274;-85
2024/01/23 09:59:58;;;;;;;18.67;3.87;;;;;;;;;;5090655;28;20198;-84
2024/01/23 10:02:29;;;;;;;7.53;3.77;;;;;;;;;;5086485;28;20276;-84
2024/01/23 10:04:59;;;;;;;15.50;3.57;;;;;;;;;;5091888;28;20198;-83
2024/01/23 10:07:30;;;;;;;6.60;1.70;;;;;;;;;;5088723;28;20193;-83
2024/01/23 10:09:59;;;;;;;21.97;4.77;;;;;;;;;;5093023;28;20302;-84
2024/01/23 10:12:32;;;;;;;6.43;3.23;;;;;;;;;;5086018;28;20280;-83
2024/01/23 10:15:01;;;;;;;14.20;3.50;;;;;;;;;;5103942;28;20201;-83
2024/01/23 10:17:33;;;;;;;13.97;3.37;;;;;;;;;;5091539;28;20193;-83
2024/01/23 10:20:01;;;;;;;8.77;3.23;;;;;;;;;;5089019;28;20198;-84
2024/01/23 10:22:30;;;;;;;11.67;3.50;;;;;;;;;;5074264;28;20203;-83
2024/01/23 10:24:59;;;;;;;10.13;4.27;;;;;;;;;;5073882;28;20220;-82
2024/01/23 10:27:30;;;;;;;14.33;3.27;;;;;;;;;;5073398;28;20234;-83
2024/01/23 10:29:59;;;;;;;7.40;3.13;;;;;;;;;;5074084;28;20254;-83
2024/01/23 10:32:30;;;;;;;15.77;6.93;;;;;;;;;;5073534;28;20212;-84
2024/01/23 10:34:59;;;;;;;21.37;6.10;;;;;;;;;;5072538;28;20238;-84
2024/01/23 10:37:28;;;;;;;15.73;4.10;;;;;;;;;;5073778;28;20257;-84
2024/01/23 10:39:58;;;;;;;10.73;5.37;;;;;;;;;;5073947;28;20330;-83
2024/01/23 10:42:26;;;;;;;10.80;3.40;;;;;;;;;;5073428;28;20196;-84
2024/01/23 10:44:55;;;;;;;18.13;5.30;;;;;;;;;;5073336;28;20219;-83
2024/01/23 10:47:23;;;;;;;13.20;4.83;;;;;;;;;;5073484;28;20227;-83
2024/01/23 10:49:52;;;;;;;11.23;4.80;;;;;;;;;;5072268;28;20292;-83
2024/01/23 10:52:22;;;;;;;10.87;3.57;;;;;;;;;;5073781;28;20301;-84
2024/01/23 10:54:56;;;;;;;11.23;3.80;;;;;;;;;;5073868;28;20196;-83
2024/01/23 10:57:25;;;;;;;7.50;2.73;;;;;;;;;;5089236;28;20199;-83
2024/01/23 10:59:54;;;;;;;16.30;3.97;;;;;;;;;;5071120;28;20200;-83
2024/01/23 11:02:31;;;;;;;12.40;3.67;;;;;;;;;;5073471;28;20279;-84
2024/01/23 11:05:03;;;;;;;8.27;3.03;;;;;;;;;;5089242;28;20203;-84
2024/01/23 11:07:41;;;;;;;13.63;5.80;;;;;;;;;;5073125;28;20235;-84
2024/01/23 11:10:16;;;;;;;4.33;3.17;;;;;;;;;;5071842;28;20199;-84
2024/01/23 11:12:47;;;;;;;8.43;3.17;;;;;;;;;;5073582;28;20220;-84
2024/01/23 11:15:17;;;;;;;18.60;6.10;;;;;;;;;;5073431;28;20291;-84
2024/01/23 11:17:47;;;;;;;15.97;2.83;;;;;;;;;;5072312;28;20204;-84
2024/01/23 11:20:18;;;;;;;19.43;6.67;;;;;;;;;;5072892;28;20257;-83
2024/01/23 11:22:48;;;;;;;25.13;7.00;;;;;;;;;;5073384;28;20190;-85
2024/01/23 11:25:19;;;;;;;10.53;4.50;;;;;;;;;;5089276;28;20199;-84
2024/01/23 11:27:48;;;;;;;4.53;2.43;;;;;;;;;;5073181;28;20195;-84
2024/01/23 11:30:18;;;;;;;19.37;4.93;;;;;;;;;;5073082;28;20245;-84
2024/01/23 11:32:47;;;;;;;13.80;4.33;;;;;;;;;;5071691;28;20271;-84
2024/01/23 11:35:15;;;;;;;19.00;4.80;;;;;;;;;;5072605;28;20237;-85
2024/01/23 11:37:50;;;;;;;21.23;5.27;;;;;;;;;;5073058;28;20255;-83
2024/01/23 11:40:34;;;;;;;14.63;4.37;;;;;;;;;;5071319;28;20200;-83
2024/01/23 11:43:04;;;;;;;16.27;4.37;;;;;;;;;;5072586;28;20275;-83
2024/01/23 11:45:33;;;;;;;14.87;4.23;;;;;;;;;;5071182;28;20211;-83
2024/01/23 11:48:03;;;;;;;14.53;4.80;;;;;;;;;;5073173;28;20200;-84
2024/01/23 11:50:33;;;;;;;8.23;3.43;;;;;;;;;;5072347;28;20313;-83
2024/01/23 11:53:03;;;;;;;8.00;2.97;;;;;;;;;;5071866;28;20212;-84
2024/01/23 11:55:35;;;;;;;12.90;4.27;;;;;;;;;;5071052;28;20206;-83
2024/01/23 11:58:03;;;;;;;9.53;2.63;;;;;;;;;;5072690;28;20196;-83
2024/01/23 12:00:32;;;;;;;19.17;4.63;;;;;;;;;;5071335;28;20199;-83
2024/01/23 12:03:00;;;;;;;9.67;3.87;;;;;;;;;;5072041;28;20206;-83
2024/01/23 12:05:29;;;;;;;6.40;2.07;;;;;;;;;;5071204;28;20448;-84
2024/01/23 12:07:57;;;;;;;21.57;7.10;;;;;;;;;;5071736;28;20211;-84
2024/01/23 12:10:27;;;;;;;10.13;4.67;;;;;;;;;;5071169;28;20208;-84
2024/01/23 12:12:57;;;;;;;10.83;3.07;;;;;;;;;;5071645;28;20310;-83
2024/01/23 12:15:26;;;;;;;10.27;4.17;;;;;;;;;;5070708;28;20208;-83
2024/01/23 12:17:55;;;;;;;9.97;3.30;;;;;;;;;;5071193;28;20226;-83
2024/01/23 12:20:23;;;;;;;26.63;5.50;;;;;;;;;;5071168;28;20205;-84
2024/01/23 12:22:52;;;;;;;8.77;3.70;;;;;;;;;;5071106;28;20199;-83
2024/01/23 12:25:20;;;;;;;10.90;5.47;;;;;;;;;;5070468;28;20279;-83
2024/01/23 12:27:51;;;;;;;15.70;5.73;;;;;;;;;;5072010;28;20238;-84
2024/01/23 12:30:19;;;;;;;21.13;6.60;;;;;;;;;;5071337;28;20201;-83
2024/01/23 12:32:48;;;;;;;21.83;4.73;;;;;;;;;;5072549;28;20218;-82
2024/01/23 12:35:17;;;;;;;18.50;6.67;;;;;;;;;;5071666;28;20232;-83
2024/01/23 12:37:46;;;;;;;16.43;4.93;;;;;;;;;;5072341;28;20225;-84
2024/01/23 12:40:15;;;;;;;13.30;3.83;;;;;;;;;;5070653;28;20208;-83
2024/01/23 12:42:44;;;;;;;14.43;4.40;;;;;;;;;;5071036;28;20192;-83
2024/01/23 12:45:16;;;;;;;11.90;3.77;;;;;;;;;;5070179;28;20222;-84
2024/01/23 12:47:45;;;;;;;6.47;2.87;;;;;;;;;;5070293;28;20205;-83
2024/01/23 12:50:21;;;;;;;24.07;6.27;;;;;;;;;;5071783;28;20257;-83
2024/01/23 12:52:49;;;;;;;19.67;7.23;;;;;;;;;;5070953;28;20260;-84
2024/01/23 12:55:18;;;;;;;6.37;3.63;;;;;;;;;;5071441;28;20206;-83
2024/01/23 12:57:46;;;;;;;16.63;5.30;;;;;;;;;;5071260;28;20199;-83
2024/01/23 13:00:17;;;;;;;18.87;6.60;;;;;;;;;;5070339;28;20199;-84
2024/01/23 13:02:47;;;;;;;15.07;5.33;;;;;;;;;;5078394;28;20199;-83
2024/01/23 13:05:18;;;;;;;14.40;3.37;;;;;;;;;;5087722;28;20279;-84
2024/01/23 13:07:47;;;;;;;25.70;7.00;;;;;;;;;;5091865;28;20208;-86
2024/01/23 13:10:16;;;;;;;25.93;8.10;;;;;;;;;;5085389;28;20200;-85
2024/01/23 13:12:45;;;;;;;14.27;4.03;;;;;;;;;;5071513;28;20220;-85
2024/01/23 13:15:31;;;;;;;26.03;8.30;;;;;;;;;;5080145;28;20256;-84
2024/01/23 13:18:00;;;;;;;24.77;6.73;;;;;;;;;;5087003;28;20230;-84
2024/01/23 13:20:29;;;;;;;20.43;7.33;;;;;;;;;;5090137;28;20237;-85
2024/01/23 13:22:58;;;;;;;24.67;7.63;;;;;;;;;;5089427;28;20200;-83
2024/01/23 13:25:27;;;;;;;33.40;10.87;;;;;;;;;;5090380;28;20246;-86
2024/01/23 13:27:56;;;;;;;16.87;6.03;;;;;;;;;;5088317;28;20258;-84
2024/01/23 13:30:29;;;;;;;23.70;6.30;;;;;;;;;;5090098;28;20238;-85
2024/01/23 13:33:00;;;;;;;28.27;7.43;;;;;;;;;;5085165;28;20231;-84
2024/01/23 13:35:28;;;;;;;19.17;6.57;;;;;;;;;;5089434;28;20199;-84
2024/01/23 13:37:57;;;;;;;6.63;2.90;;;;;;;;;;5088549;28;20196;-85
2024/01/23 13:40:25;;;;;;;11.37;6.03;;;;;;;;;;5084563;28;20193;-84
2024/01/23 13:42:55;;;;;;;12.50;4.53;;;;;;;;;;5087197;28;20331;-85
2024/01/23 13:45:26;;;;;;;25.00;9.73;;;;;;;;;;5085272;28;20249;-85
2024/01/23 13:47:56;;;;;;;23.43;7.27;;;;;;;;;;5086468;28;20192;-84
2024/01/23 13:50:27;;;;;;;26.30;7.97;;;;;;;;;;5084998;28;20224;-84
2024/01/23 13:52:55;;;;;;;11.70;3.37;;;;;;;;;;5103879;28;20197;-84
2024/01/23 13:55:25;;;;;;;10.57;3.80;;;;;;;;;;5092697;28;20200;-84
2024/01/23 13:57:53;;;;;;;26.27;6.93;;;;;;;;;;5091531;28;20285;-84
2024/01/23 14:00:22;;;;;;;16.63;6.07;;;;;;;;;;5092681;28;20323;-84
2024/01/23 14:02:50;;;;;;;25.43;11.47;;;;;;;;;;5093879;28;20206;-84
2024/01/23 14:05:20;;;;;;;21.50;7.30;;;;;;;;;;5093426;28;20203;-84
2024/01/23 14:07:52;;;;;;;18.57;8.93;;;;;;;;;;5089918;28;20385;-84
2024/01/23 14:10:21;;;;;;;24.93;11.60;;;;;;;;;;5091913;28;20226;-83
2024/01/23 14:12:52;;;;;;;29.67;10.87;;;;;;;;;;5105724;28;20227;-84
2024/01/23 14:15:21;;;;;;;17.70;5.37;;;;;;;;;;5093466;28;20209;-84
2024/01/23 14:17:50;;;;;;;27.97;11.57;;;;;;;;;;5092774;28;20203;-85
2024/01/23 14:20:20;;;;;;;25.90;11.83;;;;;;;;;;5079645;28;20295;-84
2024/01/23 14:22:52;;;;;;;23.57;10.73;;;;;;;;;;5091602;28;20195;-84
2024/01/23 14:25:21;;;;;;;31.30;10.90;;;;;;;;;;5088912;28;20200;-85
2024/01/23 14:27:52;;;;;;;24.87;10.90;;;;;;;;;;5092046;28;20203;-85
2024/01/23 14:30:22;;;;;;;22.07;8.37;;;;;;;;;;5092439;28;20209;-85
2024/01/23 14:32:51;;;;;;;18.63;7.67;;;;;;;;;;5092127;28;20254;-84
2024/01/23 14:35:21;;;;;;;26.03;10.87;;;;;;;;;;5091871;28;20237;-84
2024/01/23 14:37:51;;;;;;;23.80;8.60;;;;;;;;;;5093151;28;20192;-84
2024/01/23 14:40:22;;;;;;;28.13;11.87;;;;;;;;;;5090951;28;20252;-84
2024/01/23 14:42:52;;;;;;;25.57;8.77;;;;;;;;;;5088059;28;20194;-84
2024/01/23 14:45:24;;;;;;;23.57;10.23;;;;;;;;;;5090005;28;20255;-85